sensor_id;sensor_type;location;lat;lon;timestamp;pressure;altitude;pressure_sealevel;temperature;humidity
37832;BME280;23671;38.090;-122.570;2022-08-05T00:00:19;101011.66;;;32.93;34.71
37832;BME280;23671;38.090;-122.570;2022-08-05T00:02:47;101011.66;;;32.93;34.66
37832;BME280;23671;38.090;-122.570;2022-08-05T00:05:14;101009.19;;;32.91;34.72
37832;BME280;23671;38.090;-122.570;2022-08-05T00:07:41;101019.03;;;32.92;34.79
37832;BME280;23671;38.090;-122.570;2022-08-05T00:10:08;101018.44;;;32.90;34.71
37832;BME280;23671;38.090;-122.570;2022-08-05T00:12:35;101016.56;;;32.91;34.63
37832;BME280;23671;38.090;-122.570;2022-08-05T00:15:03;101020.34;;;32.90;34.57
37832;BME280;23671;38.090;-122.570;2022-08-05T00:17:30;101012.41;;;32.88;34.55
37832;BME280;23671;38.090;-122.570;2022-08-05T00:19:57;101005.88;;;32.89;34.25
37832;BME280;23671;38.090;-122.570;2022-08-05T00:22:24;101009.13;;;32.86;34.04
37832;BME280;23671;38.090;-122.570;2022-08-05T00:24:51;101007.75;;;32.84;33.95
37832;BME280;23671;38.090;-122.570;2022-08-05T00:27:18;101008.25;;;32.81;34.08
37832;BME280;23671;38.090;-122.570;2022-08-05T00:29:45;101006.63;;;32.80;33.89
37832;BME280;23671;38.090;-122.570;2022-08-05T00:32:12;101007.38;;;32.75;34.11
37832;BME280;23671;38.090;-122.570;2022-08-05T00:34:41;101006.56;;;32.75;33.76
37832;BME280;23671;38.090;-122.570;2022-08-05T00:37:08;101004.34;;;32.72;33.82
37832;BME280;23671;38.090;-122.570;2022-08-05T00:39:35;101004.06;;;32.68;33.55
37832;BME280;23671;38.090;-122.570;2022-08-05T00:42:02;101008.84;;;32.56;33.88
37832;BME280;23671;38.090;-122.570;2022-08-05T00:44:29;101019.19;;;32.49;33.29
37832;BME280;23671;38.090;-122.570;2022-08-05T00:46:56;101013.19;;;32.52;33.83
37832;BME280;23671;38.090;-122.570;2022-08-05T00:49:23;101013.44;;;32.51;33.84
37832;BME280;23671;38.090;-122.570;2022-08-05T00:51:50;101008.47;;;32.48;33.96
37832;BME280;23671;38.090;-122.570;2022-08-05T00:54:17;101013.38;;;32.46;33.79
37832;BME280;23671;38.090;-122.570;2022-08-05T00:56:44;101010.91;;;32.44;33.95
37832;BME280;23671;38.090;-122.570;2022-08-05T00:59:11;101010.56;;;32.41;33.66
37832;BME280;23671;38.090;-122.570;2022-08-05T01:01:40;101002.63;;;32.39;34.03
37832;BME280;23671;38.090;-122.570;2022-08-05T01:04:07;101015.16;;;32.35;34.00
37832;BME280;23671;38.090;-122.570;2022-08-05T01:06:34;101016.22;;;32.34;33.81
37832;BME280;23671;38.090;-122.570;2022-08-05T01:09:00;101018.09;;;32.29;34.06
37832;BME280;23671;38.090;-122.570;2022-08-05T01:11:33;101015.88;;;32.26;34.06
37832;BME280;23671;38.090;-122.570;2022-08-05T01:16:53;101029.44;;;32.15;34.10
37832;BME280;23671;38.090;-122.570;2022-08-05T01:19:39;101027.72;;;32.09;34.05
37832;BME280;23671;38.090;-122.570;2022-08-05T01:30:37;101036.69;;;31.88;33.05
37832;BME280;23671;38.090;-122.570;2022-08-05T01:33:08;101031.50;;;31.87;33.29
37832;BME280;23671;38.090;-122.570;2022-08-05T01:35:39;101032.56;;;31.86;33.17
37832;BME280;23671;38.090;-122.570;2022-08-05T01:38:09;101042.03;;;31.78;33.26
37832;BME280;23671;38.090;-122.570;2022-08-05T01:40:38;101036.19;;;31.70;32.91
37832;BME280;23671;38.090;-122.570;2022-08-05T01:43:07;101038.91;;;31.70;33.67
37832;BME280;23671;38.090;-122.570;2022-08-05T01:45:35;101041.25;;;31.61;33.34
37832;BME280;23671;38.090;-122.570;2022-08-05T01:48:03;101039.03;;;31.58;33.25
37832;BME280;23671;38.090;-122.570;2022-08-05T01:50:37;101048.47;;;31.51;33.46
37832;BME280;23671;38.090;-122.570;2022-08-05T01:53:10;101058.56;;;31.50;33.89
37832;BME280;23671;38.090;-122.570;2022-08-05T01:55:39;101053.53;;;31.42;33.49
37832;BME280;23671;38.090;-122.570;2022-08-05T01:58:09;101056.41;;;31.36;33.23
37832;BME280;23671;38.090;-122.570;2022-08-05T02:00:41;101057.41;;;31.29;33.10
37832;BME280;23671;38.090;-122.570;2022-08-05T02:03:25;101049.94;;;31.25;33.51
37832;BME280;23671;38.090;-122.570;2022-08-05T02:05:54;101043.91;;;31.23;33.57
37832;BME280;23671;38.090;-122.570;2022-08-05T02:08:21;101052.84;;;31.18;33.65
37832;BME280;23671;38.090;-122.570;2022-08-05T02:10:52;101047.88;;;31.15;33.31
37832;BME280;23671;38.090;-122.570;2022-08-05T02:16:19;101056.75;;;31.06;33.49
37832;BME280;23671;38.090;-122.570;2022-08-05T02:18:57;101064.50;;;30.97;33.58
37832;BME280;23671;38.090;-122.570;2022-08-05T02:21:34;101064.09;;;30.89;33.43
37832;BME280;23671;38.090;-122.570;2022-08-05T02:24:15;101068.72;;;30.77;33.82
37832;BME280;23671;38.090;-122.570;2022-08-05T02:26:53;101067.22;;;30.69;33.40
37832;BME280;23671;38.090;-122.570;2022-08-05T02:29:22;101064.66;;;30.63;33.82
37832;BME280;23671;38.090;-122.570;2022-08-05T02:31:50;101076.53;;;30.57;33.97
37832;BME280;23671;38.090;-122.570;2022-08-05T02:34:20;101073.72;;;30.52;33.67
37832;BME280;23671;38.090;-122.570;2022-08-05T02:36:56;101080.38;;;30.44;34.13
37832;BME280;23671;38.090;-122.570;2022-08-05T02:39:24;101085.16;;;30.37;34.00
37832;BME280;23671;38.090;-122.570;2022-08-05T02:41:53;101086.38;;;30.29;34.05
37832;BME280;23671;38.090;-122.570;2022-08-05T02:44:22;101089.19;;;30.23;33.86
37832;BME280;23671;38.090;-122.570;2022-08-05T02:46:51;101095.25;;;30.13;34.07
37832;BME280;23671;38.090;-122.570;2022-08-05T02:49:21;101093.72;;;30.06;32.98
37832;BME280;23671;38.090;-122.570;2022-08-05T02:51:48;101093.84;;;29.99;33.90
37832;BME280;23671;38.090;-122.570;2022-08-05T02:54:17;101098.94;;;29.96;33.61
37832;BME280;23671;38.090;-122.570;2022-08-05T02:56:47;101098.25;;;29.89;33.99
37832;BME280;23671;38.090;-122.570;2022-08-05T02:59:16;101101.44;;;29.74;33.24
37832;BME280;23671;38.090;-122.570;2022-08-05T03:01:45;101099.44;;;29.70;33.93
37832;BME280;23671;38.090;-122.570;2022-08-05T03:04:18;101098.25;;;29.66;33.91
37832;BME280;23671;38.090;-122.570;2022-08-05T03:06:45;101094.19;;;29.56;33.78
37832;BME280;23671;38.090;-122.570;2022-08-05T03:09:13;101104.97;;;29.51;34.36
37832;BME280;23671;38.090;-122.570;2022-08-05T03:11:43;101099.63;;;29.45;34.14
37832;BME280;23671;38.090;-122.570;2022-08-05T03:14:10;101101.28;;;29.34;34.58
37832;BME280;23671;38.090;-122.570;2022-08-05T03:16:38;101106.84;;;29.28;34.23
37832;BME280;23671;38.090;-122.570;2022-08-05T03:19:05;101105.03;;;29.22;33.91
37832;BME280;23671;38.090;-122.570;2022-08-05T03:21:32;101098.66;;;29.16;34.60
37832;BME280;23671;38.090;-122.570;2022-08-05T03:23:59;101104.38;;;29.08;34.43
37832;BME280;23671;38.090;-122.570;2022-08-05T03:26:26;101103.19;;;29.04;34.44
37832;BME280;23671;38.090;-122.570;2022-08-05T03:28:54;101101.44;;;28.98;34.03
37832;BME280;23671;38.090;-122.570;2022-08-05T03:31:21;101104.00;;;28.93;34.03
37832;BME280;23671;38.090;-122.570;2022-08-05T03:33:49;101112.47;;;28.85;34.04
37832;BME280;23671;38.090;-122.570;2022-08-05T03:36:17;101105.72;;;28.76;33.44
37832;BME280;23671;38.090;-122.570;2022-08-05T03:38:44;101108.16;;;28.66;33.70
37832;BME280;23671;38.090;-122.570;2022-08-05T03:41:11;101114.97;;;28.57;33.43
37832;BME280;23671;38.090;-122.570;2022-08-05T03:43:38;101118.81;;;28.49;33.28
37832;BME280;23671;38.090;-122.570;2022-08-05T03:46:05;101119.94;;;28.42;33.32
37832;BME280;23671;38.090;-122.570;2022-08-05T03:48:32;101114.59;;;28.35;33.58
37832;BME280;23671;38.090;-122.570;2022-08-05T03:53:41;101116.25;;;28.18;33.34
37832;BME280;23671;38.090;-122.570;2022-08-05T03:59:02;101120.16;;;28.04;33.13
37832;BME280;23671;38.090;-122.570;2022-08-05T04:01:31;101125.69;;;27.98;33.73
37832;BME280;23671;38.090;-122.570;2022-08-05T04:04:03;101119.88;;;27.94;33.54
37832;BME280;23671;38.090;-122.570;2022-08-05T04:06:30;101133.03;;;27.91;33.65
37832;BME280;23671;38.090;-122.570;2022-08-05T04:08:59;101132.28;;;27.83;34.22
37832;BME280;23671;38.090;-122.570;2022-08-05T04:11:26;101139.44;;;27.78;34.10
37832;BME280;23671;38.090;-122.570;2022-08-05T04:13:54;101145.47;;;27.80;34.16
37832;BME280;23671;38.090;-122.570;2022-08-05T04:16:21;101143.19;;;27.77;34.38
37832;BME280;23671;38.090;-122.570;2022-08-05T04:18:49;101151.56;;;27.75;34.42
37832;BME280;23671;38.090;-122.570;2022-08-05T04:21:16;101141.75;;;27.74;34.71
37832;BME280;23671;38.090;-122.570;2022-08-05T04:23:43;101156.00;;;27.70;34.75
37832;BME280;23671;38.090;-122.570;2022-08-05T04:26:12;101156.22;;;27.68;34.51
37832;BME280;23671;38.090;-122.570;2022-08-05T04:28:38;101166.13;;;27.56;34.65
37832;BME280;23671;38.090;-122.570;2022-08-05T04:31:06;101157.44;;;27.48;34.38
37832;BME280;23671;38.090;-122.570;2022-08-05T04:33:33;101162.69;;;27.43;34.36
37832;BME280;23671;38.090;-122.570;2022-08-05T04:36:00;101163.38;;;27.32;34.01
37832;BME280;23671;38.090;-122.570;2022-08-05T04:38:27;101159.69;;;27.20;34.39
37832;BME280;23671;38.090;-122.570;2022-08-05T04:40:54;101161.00;;;27.11;34.49
37832;BME280;23671;38.090;-122.570;2022-08-05T04:43:21;101160.88;;;26.99;34.66
37832;BME280;23671;38.090;-122.570;2022-08-05T04:45:48;101157.72;;;27.02;34.55
37832;BME280;23671;38.090;-122.570;2022-08-05T04:48:15;101157.97;;;26.94;34.59
37832;BME280;23671;38.090;-122.570;2022-08-05T04:50:44;101147.75;;;26.96;34.55
37832;BME280;23671;38.090;-122.570;2022-08-05T04:53:14;101150.72;;;26.88;34.63
37832;BME280;23671;38.090;-122.570;2022-08-05T04:55:41;101154.47;;;26.87;34.54
37832;BME280;23671;38.090;-122.570;2022-08-05T04:58:13;101152.44;;;26.76;34.51
37832;BME280;23671;38.090;-122.570;2022-08-05T05:00:41;101158.31;;;26.66;34.82
37832;BME280;23671;38.090;-122.570;2022-08-05T05:03:09;101154.53;;;26.67;34.64
37832;BME280;23671;38.090;-122.570;2022-08-05T05:05:36;101150.63;;;26.57;34.81
37832;BME280;23671;38.090;-122.570;2022-08-05T05:08:12;101158.81;;;26.44;34.92
37832;BME280;23671;38.090;-122.570;2022-08-05T05:10:42;101165.50;;;26.41;34.64
37832;BME280;23671;38.090;-122.570;2022-08-05T05:13:10;101167.19;;;26.36;35.08
37832;BME280;23671;38.090;-122.570;2022-08-05T05:15:38;101181.34;;;26.25;35.01
37832;BME280;23671;38.090;-122.570;2022-08-05T05:18:06;101174.72;;;26.14;35.30
37832;BME280;23671;38.090;-122.570;2022-08-05T05:20:34;101178.25;;;26.01;35.20
37832;BME280;23671;38.090;-122.570;2022-08-05T05:23:02;101187.00;;;25.90;35.40
37832;BME280;23671;38.090;-122.570;2022-08-05T05:25:32;101185.56;;;25.81;35.41
37832;BME280;23671;38.090;-122.570;2022-08-05T05:27:59;101185.78;;;25.73;35.72
37832;BME280;23671;38.090;-122.570;2022-08-05T05:30:26;101179.13;;;25.69;35.79
37832;BME280;23671;38.090;-122.570;2022-08-05T05:32:53;101175.81;;;25.61;35.71
37832;BME280;23671;38.090;-122.570;2022-08-05T05:35:20;101172.03;;;25.55;35.97
37832;BME280;23671;38.090;-122.570;2022-08-05T05:37:49;101176.59;;;25.48;35.96
37832;BME280;23671;38.090;-122.570;2022-08-05T05:40:17;101175.56;;;25.43;36.02
37832;BME280;23671;38.090;-122.570;2022-08-05T05:42:44;101181.56;;;25.38;36.18
37832;BME280;23671;38.090;-122.570;2022-08-05T05:45:11;101173.00;;;25.28;35.94
37832;BME280;23671;38.090;-122.570;2022-08-05T05:47:40;101172.59;;;25.24;35.97
37832;BME280;23671;38.090;-122.570;2022-08-05T05:50:09;101171.97;;;25.16;36.18
37832;BME280;23671;38.090;-122.570;2022-08-05T05:52:37;101182.53;;;25.11;36.41
37832;BME280;23671;38.090;-122.570;2022-08-05T05:55:06;101182.34;;;25.06;36.42
37832;BME280;23671;38.090;-122.570;2022-08-05T05:57:37;101185.00;;;24.99;36.47
37832;BME280;23671;38.090;-122.570;2022-08-05T06:00:06;101190.00;;;24.96;36.52
37832;BME280;23671;38.090;-122.570;2022-08-05T06:02:33;101193.72;;;24.88;36.55
37832;BME280;23671;38.090;-122.570;2022-08-05T06:05:00;101189.75;;;24.84;36.62
37832;BME280;23671;38.090;-122.570;2022-08-05T06:07:27;101184.34;;;24.78;36.83
37832;BME280;23671;38.090;-122.570;2022-08-05T06:09:54;101185.16;;;24.72;36.79
37832;BME280;23671;38.090;-122.570;2022-08-05T06:12:21;101184.88;;;24.67;37.02
37832;BME280;23671;38.090;-122.570;2022-08-05T06:14:48;101182.78;;;24.62;36.79
37832;BME280;23671;38.090;-122.570;2022-08-05T06:17:15;101191.91;;;24.55;36.87
37832;BME280;23671;38.090;-122.570;2022-08-05T06:19:42;101193.97;;;24.53;37.06
37832;BME280;23671;38.090;-122.570;2022-08-05T06:22:09;101194.75;;;24.47;37.16
37832;BME280;23671;38.090;-122.570;2022-08-05T06:24:41;101204.28;;;24.43;37.14
37832;BME280;23671;38.090;-122.570;2022-08-05T06:27:08;101191.38;;;24.38;37.15
37832;BME280;23671;38.090;-122.570;2022-08-05T06:29:35;101192.16;;;24.32;37.30
37832;BME280;23671;38.090;-122.570;2022-08-05T06:32:02;101203.59;;;24.27;37.27
37832;BME280;23671;38.090;-122.570;2022-08-05T06:34:29;101200.41;;;24.24;37.36
37832;BME280;23671;38.090;-122.570;2022-08-05T06:36:56;101204.75;;;24.18;37.40
37832;BME280;23671;38.090;-122.570;2022-08-05T06:39:23;101192.69;;;24.14;37.29
37832;BME280;23671;38.090;-122.570;2022-08-05T06:41:50;101193.28;;;24.10;37.29
37832;BME280;23671;38.090;-122.570;2022-08-05T06:44:17;101192.84;;;24.06;37.32
37832;BME280;23671;38.090;-122.570;2022-08-05T06:46:44;101191.94;;;23.99;37.42
37832;BME280;23671;38.090;-122.570;2022-08-05T06:49:11;101196.03;;;23.95;37.47
37832;BME280;23671;38.090;-122.570;2022-08-05T06:51:38;101205.38;;;23.93;37.43
37832;BME280;23671;38.090;-122.570;2022-08-05T06:54:05;101197.03;;;23.88;37.53
37832;BME280;23671;38.090;-122.570;2022-08-05T06:56:32;101195.56;;;23.85;37.67
37832;BME280;23671;38.090;-122.570;2022-08-05T06:58:59;101192.63;;;23.80;37.74
37832;BME280;23671;38.090;-122.570;2022-08-05T07:01:26;101196.72;;;23.76;37.77
37832;BME280;23671;38.090;-122.570;2022-08-05T07:03:53;101199.84;;;23.73;37.79
37832;BME280;23671;38.090;-122.570;2022-08-05T07:06:20;101196.88;;;23.68;37.74
37832;BME280;23671;38.090;-122.570;2022-08-05T07:08:48;101190.81;;;23.66;37.70
37832;BME280;23671;38.090;-122.570;2022-08-05T07:11:16;101186.03;;;23.62;37.76
37832;BME280;23671;38.090;-122.570;2022-08-05T07:13:43;101181.22;;;23.57;37.82
37832;BME280;23671;38.090;-122.570;2022-08-05T07:16:29;101174.53;;;23.53;37.99
37832;BME280;23671;38.090;-122.570;2022-08-05T07:19:19;101164.16;;;23.50;38.01
37832;BME280;23671;38.090;-122.570;2022-08-05T07:21:47;101171.63;;;23.48;37.91
37832;BME280;23671;38.090;-122.570;2022-08-05T07:24:15;101166.16;;;23.41;38.05
37832;BME280;23671;38.090;-122.570;2022-08-05T07:26:43;101160.31;;;23.38;38.17
37832;BME280;23671;38.090;-122.570;2022-08-05T07:29:11;101166.91;;;23.35;38.13
37832;BME280;23671;38.090;-122.570;2022-08-05T07:31:38;101171.66;;;23.33;38.11
37832;BME280;23671;38.090;-122.570;2022-08-05T07:34:05;101171.03;;;23.31;38.10
37832;BME280;23671;38.090;-122.570;2022-08-05T07:36:33;101172.44;;;23.27;38.15
37832;BME280;23671;38.090;-122.570;2022-08-05T07:39:01;101177.19;;;23.25;38.36
37832;BME280;23671;38.090;-122.570;2022-08-05T07:41:29;101176.69;;;23.22;38.25
37832;BME280;23671;38.090;-122.570;2022-08-05T07:43:57;101180.00;;;23.17;38.39
37832;BME280;23671;38.090;-122.570;2022-08-05T07:46:26;101186.59;;;23.15;38.36
37832;BME280;23671;38.090;-122.570;2022-08-05T07:48:54;101184.94;;;23.14;38.35
37832;BME280;23671;38.090;-122.570;2022-08-05T07:51:22;101181.59;;;23.12;38.42
37832;BME280;23671;38.090;-122.570;2022-08-05T07:53:49;101173.03;;;23.08;38.37
37832;BME280;23671;38.090;-122.570;2022-08-05T07:56:17;101176.97;;;23.06;38.46
37832;BME280;23671;38.090;-122.570;2022-08-05T07:58:44;101176.13;;;23.05;38.29
37832;BME280;23671;38.090;-122.570;2022-08-05T08:01:11;101178.38;;;23.02;38.37
37832;BME280;23671;38.090;-122.570;2022-08-05T08:03:38;101178.72;;;22.99;38.43
37832;BME280;23671;38.090;-122.570;2022-08-05T08:06:06;101182.84;;;22.95;38.48
37832;BME280;23671;38.090;-122.570;2022-08-05T08:08:33;101185.72;;;22.93;38.48
37832;BME280;23671;38.090;-122.570;2022-08-05T08:11:00;101195.19;;;22.89;38.45
37832;BME280;23671;38.090;-122.570;2022-08-05T08:13:27;101194.38;;;22.89;38.46
37832;BME280;23671;38.090;-122.570;2022-08-05T08:15:54;101186.88;;;22.84;38.66
37832;BME280;23671;38.090;-122.570;2022-08-05T08:18:21;101196.16;;;22.82;38.47
37832;BME280;23671;38.090;-122.570;2022-08-05T08:20:48;101194.22;;;22.76;38.65
37832;BME280;23671;38.090;-122.570;2022-08-05T08:23:16;101187.16;;;22.75;38.58
37832;BME280;23671;38.090;-122.570;2022-08-05T08:25:44;101186.06;;;22.69;38.72
37832;BME280;23671;38.090;-122.570;2022-08-05T08:28:12;101176.50;;;22.67;38.70
37832;BME280;23671;38.090;-122.570;2022-08-05T08:30:39;101186.16;;;22.61;38.75
37832;BME280;23671;38.090;-122.570;2022-08-05T08:33:10;101194.06;;;22.63;38.74
37832;BME280;23671;38.090;-122.570;2022-08-05T08:35:38;101189.88;;;22.60;38.82
37832;BME280;23671;38.090;-122.570;2022-08-05T08:38:05;101185.31;;;22.61;38.65
37832;BME280;23671;38.090;-122.570;2022-08-05T08:40:34;101179.66;;;22.55;38.67
37832;BME280;23671;38.090;-122.570;2022-08-05T08:43:02;101197.00;;;22.53;38.75
37832;BME280;23671;38.090;-122.570;2022-08-05T08:45:30;101189.31;;;22.50;38.82
37832;BME280;23671;38.090;-122.570;2022-08-05T08:47:58;101188.09;;;22.52;38.68
37832;BME280;23671;38.090;-122.570;2022-08-05T08:50:31;101190.06;;;22.44;38.85
37832;BME280;23671;38.090;-122.570;2022-08-05T08:53:04;101188.22;;;22.44;38.68
37832;BME280;23671;38.090;-122.570;2022-08-05T08:55:33;101196.81;;;22.40;38.87
37832;BME280;23671;38.090;-122.570;2022-08-05T08:58:01;101199.88;;;22.37;38.81
37832;BME280;23671;38.090;-122.570;2022-08-05T09:00:28;101196.56;;;22.35;38.94
37832;BME280;23671;38.090;-122.570;2022-08-05T09:02:56;101201.75;;;22.36;38.76
37832;BME280;23671;38.090;-122.570;2022-08-05T09:05:23;101190.03;;;22.29;38.97
37832;BME280;23671;38.090;-122.570;2022-08-05T09:07:51;101200.72;;;22.23;39.05
37832;BME280;23671;38.090;-122.570;2022-08-05T09:10:20;101198.31;;;22.28;38.99
37832;BME280;23671;38.090;-122.570;2022-08-05T09:12:47;101203.63;;;22.21;39.07
37832;BME280;23671;38.090;-122.570;2022-08-05T09:15:15;101200.91;;;22.21;38.83
37832;BME280;23671;38.090;-122.570;2022-08-05T09:17:42;101195.69;;;22.20;38.84
37832;BME280;23671;38.090;-122.570;2022-08-05T09:20:10;101199.44;;;22.19;38.85
37832;BME280;23671;38.090;-122.570;2022-08-05T09:23:09;101198.97;;;22.15;39.03
37832;BME280;23671;38.090;-122.570;2022-08-05T09:25:41;101193.09;;;22.12;38.90
37832;BME280;23671;38.090;-122.570;2022-08-05T09:28:16;101200.16;;;22.13;38.99
37832;BME280;23671;38.090;-122.570;2022-08-05T09:33:17;101193.84;;;22.06;38.81
37832;BME280;23671;38.090;-122.570;2022-08-05T09:35:58;101191.16;;;22.06;38.82
37832;BME280;23671;38.090;-122.570;2022-08-05T09:38:26;101203.97;;;22.04;39.07
37832;BME280;23671;38.090;-122.570;2022-08-05T09:41:01;101195.91;;;22.04;38.70
37832;BME280;23671;38.090;-122.570;2022-08-05T09:45:57;101206.34;;;21.99;38.95
37832;BME280;23671;38.090;-122.570;2022-08-05T09:48:31;101205.69;;;21.97;38.87
37832;BME280;23671;38.090;-122.570;2022-08-05T09:51:07;101211.91;;;21.97;38.94
37832;BME280;23671;38.090;-122.570;2022-08-05T09:53:53;101214.13;;;21.94;38.89
37832;BME280;23671;38.090;-122.570;2022-08-05T09:56:28;101216.38;;;21.90;39.15
37832;BME280;23671;38.090;-122.570;2022-08-05T09:59:01;101218.03;;;21.91;38.99
37832;BME280;23671;38.090;-122.570;2022-08-05T10:01:29;101225.63;;;21.88;38.92
37832;BME280;23671;38.090;-122.570;2022-08-05T10:04:06;101229.88;;;21.82;39.28
37832;BME280;23671;38.090;-122.570;2022-08-05T10:06:34;101224.81;;;21.79;39.30
37832;BME280;23671;38.090;-122.570;2022-08-05T10:09:14;101228.53;;;21.78;39.12
37832;BME280;23671;38.090;-122.570;2022-08-05T10:11:42;101233.06;;;21.78;39.19
37832;BME280;23671;38.090;-122.570;2022-08-05T10:14:27;101239.78;;;21.82;39.03
37832;BME280;23671;38.090;-122.570;2022-08-05T10:16:56;101238.63;;;21.76;39.01
37832;BME280;23671;38.090;-122.570;2022-08-05T10:19:37;101228.78;;;21.68;39.27
37832;BME280;23671;38.090;-122.570;2022-08-05T10:22:04;101238.03;;;21.66;39.18
37832;BME280;23671;38.090;-122.570;2022-08-05T10:24:33;101235.34;;;21.66;39.24
37832;BME280;23671;38.090;-122.570;2022-08-05T10:27:00;101242.09;;;21.62;39.34
37832;BME280;23671;38.090;-122.570;2022-08-05T10:29:27;101239.41;;;21.62;39.33
37832;BME280;23671;38.090;-122.570;2022-08-05T10:31:57;101230.69;;;21.60;39.18
37832;BME280;23671;38.090;-122.570;2022-08-05T10:34:24;101231.72;;;21.59;39.33
37832;BME280;23671;38.090;-122.570;2022-08-05T10:36:52;101226.34;;;21.59;39.17
37832;BME280;23671;38.090;-122.570;2022-08-05T10:39:29;101228.72;;;21.54;39.26
37832;BME280;23671;38.090;-122.570;2022-08-05T10:42:09;101227.44;;;21.50;39.37
37832;BME280;23671;38.090;-122.570;2022-08-05T10:44:37;101226.59;;;21.49;39.34
37832;BME280;23671;38.090;-122.570;2022-08-05T10:47:11;101232.16;;;21.48;39.45
37832;BME280;23671;38.090;-122.570;2022-08-05T10:49:59;101235.19;;;21.45;39.28
37832;BME280;23671;38.090;-122.570;2022-08-05T10:52:55;101232.84;;;21.42;39.53
37832;BME280;23671;38.090;-122.570;2022-08-05T10:55:23;101235.72;;;21.40;39.46
37832;BME280;23671;38.090;-122.570;2022-08-05T10:58:10;101239.78;;;21.36;39.57
37832;BME280;23671;38.090;-122.570;2022-08-05T11:00:37;101246.34;;;21.34;39.69
37832;BME280;23671;38.090;-122.570;2022-08-05T11:03:12;101246.53;;;21.32;39.63
37832;BME280;23671;38.090;-122.570;2022-08-05T11:05:40;101246.53;;;21.32;39.56
37832;BME280;23671;38.090;-122.570;2022-08-05T11:08:09;101254.59;;;21.32;39.45
37832;BME280;23671;38.090;-122.570;2022-08-05T11:10:37;101252.25;;;21.29;39.46
37832;BME280;23671;38.090;-122.570;2022-08-05T11:13:07;101243.88;;;21.24;39.63
37832;BME280;23671;38.090;-122.570;2022-08-05T11:15:38;101246.09;;;21.21;39.66
37832;BME280;23671;38.090;-122.570;2022-08-05T11:18:27;101253.78;;;21.24;39.59
37832;BME280;23671;38.090;-122.570;2022-08-05T11:20:55;101238.19;;;21.19;39.61
37832;BME280;23671;38.090;-122.570;2022-08-05T11:23:42;101246.44;;;21.18;39.83
37832;BME280;23671;38.090;-122.570;2022-08-05T11:26:21;101248.13;;;21.19;39.65
37832;BME280;23671;38.090;-122.570;2022-08-05T11:28:52;101241.75;;;21.12;39.82
37832;BME280;23671;38.090;-122.570;2022-08-05T11:31:25;101247.13;;;21.12;39.70
37832;BME280;23671;38.090;-122.570;2022-08-05T11:34:00;101247.88;;;21.06;39.85
37832;BME280;23671;38.090;-122.570;2022-08-05T11:36:48;101252.22;;;21.07;39.98
37832;BME280;23671;38.090;-122.570;2022-08-05T11:39:46;101252.41;;;21.05;39.86
37832;BME280;23671;38.090;-122.570;2022-08-05T11:42:16;101251.91;;;21.02;39.89
37832;BME280;23671;38.090;-122.570;2022-08-05T11:44:48;101257.41;;;21.00;39.97
37832;BME280;23671;38.090;-122.570;2022-08-05T11:47:23;101252.75;;;20.94;39.88
37832;BME280;23671;38.090;-122.570;2022-08-05T11:49:58;101253.56;;;20.95;39.93
37832;BME280;23671;38.090;-122.570;2022-08-05T11:52:29;101255.59;;;20.93;39.90
37832;BME280;23671;38.090;-122.570;2022-08-05T11:54:59;101254.13;;;20.90;39.90
37832;BME280;23671;38.090;-122.570;2022-08-05T11:57:30;101248.75;;;20.90;40.12
37832;BME280;23671;38.090;-122.570;2022-08-05T11:59:57;101251.94;;;20.86;40.18
37832;BME280;23671;38.090;-122.570;2022-08-05T12:02:26;101251.09;;;20.85;40.03
37832;BME280;23671;38.090;-122.570;2022-08-05T12:04:54;101257.69;;;20.83;40.23
37832;BME280;23671;38.090;-122.570;2022-08-05T12:07:21;101259.84;;;20.79;40.10
37832;BME280;23671;38.090;-122.570;2022-08-05T12:09:53;101261.53;;;20.80;40.19
37832;BME280;23671;38.090;-122.570;2022-08-05T12:12:26;101263.19;;;20.81;39.85
37832;BME280;23671;38.090;-122.570;2022-08-05T12:14:55;101267.09;;;20.78;40.30
37832;BME280;23671;38.090;-122.570;2022-08-05T12:17:22;101264.75;;;20.75;40.05
37832;BME280;23671;38.090;-122.570;2022-08-05T12:19:54;101264.06;;;20.73;40.19
37832;BME280;23671;38.090;-122.570;2022-08-05T12:22:25;101268.78;;;20.71;40.07
37832;BME280;23671;38.090;-122.570;2022-08-05T12:24:52;101275.16;;;20.70;40.29
37832;BME280;23671;38.090;-122.570;2022-08-05T12:27:24;101270.97;;;20.68;40.21
37832;BME280;23671;38.090;-122.570;2022-08-05T12:30:00;101269.47;;;20.65;40.15
37832;BME280;23671;38.090;-122.570;2022-08-05T12:32:30;101274.84;;;20.65;40.14
37832;BME280;23671;38.090;-122.570;2022-08-05T12:34:57;101274.16;;;20.63;40.24
37832;BME280;23671;38.090;-122.570;2022-08-05T12:37:24;101274.16;;;20.63;40.20
37832;BME280;23671;38.090;-122.570;2022-08-05T12:39:52;101273.50;;;20.61;40.26
37832;BME280;23671;38.090;-122.570;2022-08-05T12:42:20;101278.56;;;20.56;40.42
37832;BME280;23671;38.090;-122.570;2022-08-05T12:44:47;101278.75;;;20.55;40.46
37832;BME280;23671;38.090;-122.570;2022-08-05T12:47:28;101282.41;;;20.54;40.36
37832;BME280;23671;38.090;-122.570;2022-08-05T12:49:56;101279.72;;;20.54;40.46
37832;BME280;23671;38.090;-122.570;2022-08-05T12:52:23;101281.44;;;20.47;40.56
37832;BME280;23671;38.090;-122.570;2022-08-05T12:54:50;101289.31;;;20.48;40.43
37832;BME280;23671;38.090;-122.570;2022-08-05T12:57:18;101287.81;;;20.46;40.50